Hui Tong — 3FWX2 — position and weather

sailwx.info

Track history (hours):
 
Tides and Currents Weather Stations Pressure Air Temp Water Temp Dewpoint Dewpoint Depression Visibility Wind Speed Wind Dir Waves Ship Positions

Hui Tong

Last reported at 2018-Mar-11 10:14 UTC. Time now 2018-Apr-21 13:47 UTC.
Position N 34°35' E 130°48'.
Warning: this ship's position is 41 days out of date.

Length 100 m; draft 3.6 m.

Type: Cargo ship. MMSI: 370672000.

Date/timePositionNaut miles runAvg speedWind from/ knotsBaromVisibWave heightAir tempDewpointWater temp
2018-Mar-11 10:14N 34°35' E 130°48'311.1
2018-Mar-11 09:57N 34°32' E 130°47'710.7
2018-Mar-11 09:19N 34°25' E 130°47'410.9
2018-Mar-11 08:55N 34°21' E 130°47'410.8
2018-Mar-11 08:30N 34°17' E 130°47'610.8
2018-Mar-11 07:57N 34°11' E 130°50'510.3
2018-Mar-11 07:31N 34°07' E 130°51'510.3
2018-Mar-11 07:01N 34°02' E 130°52'5 9.7
2018-Mar-11 06:31N 33°57' E 130°52'3 6.8
2018-Mar-11 06:00N 33°55' E 130°56'4 8.7
2018-Mar-11 05:31N 33°59' E 130°59'5 9.3
2018-Mar-11 05:01N 33°57' E 131°04'5 9.7
2018-Mar-11 04:30N 33°54' E 131°09'510.0
2018-Mar-11 03:59N 33°52' E 131°15'510.4
2018-Mar-11 03:31N 33°51' E 131°20'510.8
2018-Mar-11 03:01N 33°49' E 131°27'510.6
2018-Mar-11 02:31N 33°48' E 131°33'510.6
2018-Mar-11 02:00N 33°47' E 131°39'50 9.8
2018-Mar-10 20:52N 33°56' E 132°39'4 9.8
2018-Mar-10 20:30N 33°58' E 132°43'94 9.3
2018-Mar-10 10:22N 34°28' E 134°31'610.5
2018-Mar-10 09:49N 34°30' E 134°37'310.5
2018-Mar-10 09:30N 34°32' E 134°41'510.3
2018-Mar-10 08:59N 34°34' E 134°47'510.0
2018-Mar-10 08:30N 34°35' E 134°52'5 9.9
2018-Mar-10 08:00N 34°37' E 134°58'5 9.2
2018-Mar-10 07:31N 34°36' E 135°03'5 9.0
2018-Mar-10 07:00N 34°32' E 135°05'510.9
2018-Mar-10 06:30N 34°27' E 135°03'510.8
2018-Mar-10 06:00N 34°21' E 135°01'510.2
2018-Mar-10 05:31N 34°17' E 134°59'610.0
2018-Mar-10 04:54N 34°11' E 134°59'4 9.8
2018-Mar-10 04:28N 34°06' E 134°59'5 9.5
2018-Mar-10 03:58N 34°02' E 134°59'9 8.9
2018-Mar-10 02:58N 33°53' E 134°59'103 6.3
2018-Mar-09 10:39N 34°40' E 136°50'910.4
2018-Mar-09 09:49N 34°47' E 136°44'3 9.2
2018-Mar-09 09:30N 34°50' E 136°42'1 1.1
2018-Mar-09 08:55N 34°50' E 136°42'0 0.0
2018-Mar-09 08:28N 34°50' E 136°42'0 0.0
2018-Mar-09 07:58N 34°50' E 136°42'0 0.0
2018-Mar-09 07:28N 34°50' E 136°42'0 0.0
2018-Mar-09 06:58N 34°50' E 136°42'0 0.0
2018-Mar-09 06:25N 34°50' E 136°42'0 0.0
2018-Mar-09 05:55N 34°50' E 136°42'0 0.0
2018-Mar-09 05:28N 34°50' E 136°42'0 0.0
2018-Mar-09 04:55N 34°50' E 136°42'0 0.0
2018-Mar-09 04:25N 34°50' E 136°42'0 0.0
2018-Mar-09 02:07N 34°50' E 136°42'0 0.0
2018-Mar-09 01:19N 34°50' E 136°42'0 0.0
2018-Mar-08 23:49N 34°50' E 136°42'0 0.1
2018-Mar-08 23:22N 34°50' E 136°42'0 0.0
2018-Mar-08 22:49N 34°50' E 136°42'0 0.1
2018-Mar-08 22:28N 34°50' E 136°42'0 0.0
2018-Mar-08 21:43N 34°50' E 136°42'0 0.0
2018-Mar-08 21:25N 34°50' E 136°42'0 0.0
2018-Mar-08 20:58N 34°50' E 136°42'0 0.0
2018-Mar-08 20:22N 34°50' E 136°42'0 0.0
2018-Mar-07 21:58N 34°50' E 136°42'0 0.0
2018-Mar-07 21:28N 34°50' E 136°42'0 0.0
2018-Mar-07 20:55N 34°50' E 136°42'0 0.0
2018-Mar-07 20:25N 34°50' E 136°42'0 0.0
2018-Mar-07 19:58N 34°50' E 136°42'0 0.0
2018-Mar-07 19:25N 34°50' E 136°42'0 0.0
2018-Mar-07 18:58N 34°50' E 136°42'0 0.0
2018-Mar-07 18:28N 34°50' E 136°42'0 0.1
2018-Mar-07 17:49N 34°50' E 136°42'0 0.0
2018-Mar-07 17:25N 34°50' E 136°42'0 0.0
2018-Mar-07 16:52N 34°50' E 136°42'0 0.0
2018-Mar-07 16:25N 34°50' E 136°42'0 0.0
2018-Mar-07 15:19N 34°50' E 136°42'0 0.0
2018-Mar-07 14:55N 34°50' E 136°42'0 0.0
2018-Mar-07 10:43N 34°50' E 136°41'0 0.1
2018-Mar-07 10:13N 34°50' E 136°42'0 0.0
2018-Mar-07 09:49N 34°50' E 136°42'0 0.0
2018-Mar-07 09:25N 34°50' E 136°42'0 0.1
2018-Mar-07 08:55N 34°50' E 136°42'0 0.0
2018-Mar-07 08:25N 34°50' E 136°42'0 0.6
2018-Mar-07 08:00N 34°50' E 136°42'4 7.2
2018-Mar-07 07:30N 34°54' E 136°44'4 8.7
2018-Mar-07 07:00N 34°58' E 136°46'4 7.6
2018-Mar-07 06:30N 35°01' E 136°48'1 2.6
2018-Mar-07 06:00N 35°02' E 136°49'0 0.0
2018-Mar-07 05:30N 35°02' E 136°49'0 0.0
2018-Mar-07 05:00N 35°02' E 136°49'0 0.0
2018-Mar-07 04:27N 35°02' E 136°49'0 0.0
2018-Mar-07 04:00N 35°02' E 136°49'0 0.0
2018-Mar-07 03:30N 35°02' E 136°49'0 0.0
2018-Mar-07 03:00N 35°02' E 136°49'0 0.0
2018-Mar-07 02:30N 35°02' E 136°49'0 0.0
2018-Mar-07 02:00N 35°02' E 136°49'0 0.0
2018-Mar-07 01:30N 35°02' E 136°49'0 0.0
2018-Mar-07 01:00N 35°02' E 136°49'0 0.0
2018-Mar-07 00:30N 35°02' E 136°49'0 0.0
2018-Mar-07 00:00N 35°02' E 136°49'0 0.0
2018-Mar-06 23:30N 35°02' E 136°49'0 0.0
2018-Mar-06 23:00N 35°02' E 136°49'0 0.0
2018-Mar-06 22:30N 35°02' E 136°49'0 0.0
2018-Mar-06 22:00N 35°02' E 136°49'0 0.0
2018-Mar-06 21:30N 35°02' E 136°49'0 0.0
2018-Mar-06 21:00N 35°02' E 136°49'0 0.0
2018-Mar-06 20:30N 35°02' E 136°49'0 0.0
2018-Mar-06 20:00N 35°02' E 136°49'0 0.0
2018-Mar-06 19:30N 35°02' E 136°49'0 0.0
2018-Mar-06 18:57N 35°02' E 136°49'0 0.0
2018-Mar-06 18:30N 35°02' E 136°49'0 0.0
2018-Mar-06 18:00N 35°02' E 136°49'0 0.0
2018-Mar-06 17:30N 35°02' E 136°49'0 0.0
2018-Mar-06 17:00N 35°02' E 136°49'0 0.0
2018-Mar-06 16:30N 35°02' E 136°49'0 0.0
2018-Mar-06 16:00N 35°02' E 136°49'0 0.0
2018-Mar-06 15:30N 35°02' E 136°49'0 0.0
2018-Mar-06 15:00N 35°02' E 136°49'0 0.0
2018-Mar-06 14:27N 35°02' E 136°49'0 0.0
2018-Mar-06 14:00N 35°02' E 136°49'0 0.0
2018-Mar-06 13:30N 35°02' E 136°49'0 0.0
2018-Mar-06 12:57N 35°02' E 136°49'0 0.0
2018-Mar-06 12:30N 35°02' E 136°49'0 0.0
2018-Mar-06 12:00N 35°02' E 136°49'0 0.0
2018-Mar-06 11:30N 35°02' E 136°49'0 0.0
2018-Mar-06 11:00N 35°02' E 136°49'0 0.0
2018-Mar-06 10:30N 35°02' E 136°49'0 0.0
2018-Mar-06 10:00N 35°02' E 136°49'0 0.0
2018-Mar-06 09:30N 35°02' E 136°49'0 0.0
2018-Mar-06 09:00N 35°02' E 136°49'0 0.0
2018-Mar-06 08:30N 35°02' E 136°49'0 0.0
2018-Mar-06 08:00N 35°02' E 136°49'0 0.0
2018-Mar-06 07:30N 35°02' E 136°49'0 0.0
2018-Mar-06 07:00N 35°02' E 136°49'0 0.0
2018-Mar-06 06:30N 35°02' E 136°49'0 0.0
2018-Mar-06 06:00N 35°02' E 136°49'0 0.0
2018-Mar-06 05:30N 35°02' E 136°49'0 0.0
2018-Mar-06 05:00N 35°02' E 136°49'0 0.0
2018-Mar-06 04:30N 35°02' E 136°49'0 0.0
2018-Mar-06 04:00N 35°02' E 136°49'0 0.0
2018-Mar-06 03:30N 35°02' E 136°49'0 0.0
2018-Mar-06 03:00N 35°02' E 136°49'0 0.0
2018-Mar-06 02:30N 35°02' E 136°49'0 0.0
2018-Mar-06 01:57N 35°02' E 136°49'0 0.0
2018-Mar-06 01:30N 35°02' E 136°49'0 0.0
2018-Mar-06 01:00N 35°02' E 136°49'0 0.0
2018-Mar-06 00:30N 35°02' E 136°49'0 0.0
2018-Mar-06 00:00N 35°02' E 136°49'0 0.0
2018-Mar-05 23:30N 35°02' E 136°49'0 0.0
2018-Mar-05 23:00N 35°02' E 136°49'0 0.0
2018-Mar-05 22:27N 35°02' E 136°49'0 0.0
2018-Mar-05 22:00N 35°02' E 136°49'0 0.0
2018-Mar-05 21:30N 35°02' E 136°49'0 0.0
2018-Mar-05 21:00N 35°02' E 136°49'0 0.0
2018-Mar-05 20:30N 35°02' E 136°49'0 0.0
2018-Mar-05 20:00N 35°02' E 136°49'0 0.0
2018-Mar-05 19:30N 35°02' E 136°49'0 0.0
2018-Mar-05 19:00N 35°02' E 136°49'0 0.0
2018-Mar-05 18:27N 35°02' E 136°49'0 0.0
2018-Mar-05 18:00N 35°02' E 136°49'0 0.0
2018-Mar-05 17:27N 35°02' E 136°49'0 0.0
2018-Mar-05 17:00N 35°02' E 136°49'0 0.0
2018-Mar-05 16:30N 35°02' E 136°49'0 0.0
2018-Mar-05 15:57N 35°02' E 136°49'0 0.0
2018-Mar-05 15:30N 35°02' E 136°49'0 0.0
2018-Mar-05 15:00N 35°02' E 136°49'0 0.0
2018-Mar-05 14:30N 35°02' E 136°49'0 0.0
2018-Mar-05 14:00N 35°02' E 136°49'0 0.0
2018-Mar-05 13:30N 35°02' E 136°49'0 0.0
2018-Mar-05 13:00N 35°02' E 136°49'0 0.0
2018-Mar-05 12:27N 35°02' E 136°49'0 0.0
2018-Mar-05 11:57N 35°02' E 136°49'0 0.0
2018-Mar-05 11:30N 35°02' E 136°49'0 0.0
2018-Mar-05 10:57N 35°02' E 136°49'0 0.0
2018-Mar-05 10:30N 35°02' E 136°49'0 0.0
2018-Mar-05 10:00N 35°02' E 136°49'0 0.0
2018-Mar-05 09:30N 35°02' E 136°49'0 0.0
2018-Mar-05 09:00N 35°02' E 136°49'0 0.0
2018-Mar-05 08:30N 35°02' E 136°49'0 0.0
2018-Mar-05 08:00N 35°02' E 136°49'0 0.0
2018-Mar-05 07:30N 35°02' E 136°49'0 0.0
2018-Mar-05 07:00N 35°02' E 136°49'0 0.0
2018-Mar-05 06:30N 35°02' E 136°49'0 0.0
2018-Mar-05 06:00N 35°02' E 136°49'0 0.0
2018-Mar-05 05:30N 35°02' E 136°49'0 0.0
2018-Mar-05 05:00N 35°02' E 136°49'0 0.0
2018-Mar-05 04:30N 35°02' E 136°49'0 0.0
2018-Mar-05 03:57N 35°02' E 136°49'0 0.0
2018-Mar-05 03:30N 35°02' E 136°49'0 0.0
2018-Mar-05 03:00N 35°02' E 136°49'0 0.0
2018-Mar-05 02:30N 35°02' E 136°49'0 0.0
2018-Mar-05 01:57N 35°02' E 136°49'0 0.0
2018-Mar-05 01:27N 35°02' E 136°49'0 0.0
2018-Mar-05 01:00N 35°02' E 136°49'0 0.0
2018-Mar-05 00:30N 35°02' E 136°49'0 0.0
2018-Mar-05 00:00N 35°02' E 136°49'0 0.0
2018-Mar-04 23:30N 35°02' E 136°49'0 0.0
2018-Mar-04 23:00N 35°02' E 136°49'0 0.0
2018-Mar-04 22:30N 35°02' E 136°49'0 0.0
2018-Mar-04 22:00N 35°02' E 136°49'0 0.0
2018-Mar-04 21:30N 35°02' E 136°49'0 0.0
2018-Mar-04 21:00N 35°02' E 136°49'0 0.0
2018-Mar-04 20:30N 35°02' E 136°49'0 0.0
2018-Mar-04 20:00N 35°02' E 136°49'0 0.0
2018-Mar-04 19:30N 35°02' E 136°49'0 0.0
2018-Mar-04 19:00N 35°02' E 136°49'0 0.0
2018-Mar-04 18:27N 35°02' E 136°49'0 0.0
2018-Mar-04 18:00N 35°02' E 136°49'0 0.0
2018-Mar-04 17:27N 35°02' E 136°49'0 0.0
2018-Mar-04 17:00N 35°02' E 136°49'0 0.0
2018-Mar-04 16:30N 35°02' E 136°49'0 0.0
2018-Mar-04 16:00N 35°02' E 136°49'0 0.0
2018-Mar-04 15:30N 35°02' E 136°49'0 0.0
2018-Mar-04 15:00N 35°02' E 136°49'0 0.0
2018-Mar-04 14:30N 35°02' E 136°49'0 0.0
2018-Mar-04 14:00N 35°02' E 136°49'0 0.0
2018-Mar-04 13:30N 35°02' E 136°49'0 0.0
2018-Mar-04 13:00N 35°02' E 136°49'0 0.0
2018-Mar-04 12:30N 35°02' E 136°49'0 0.0
2018-Mar-04 12:00N 35°02' E 136°49'0 0.0
2018-Mar-04 11:24N 35°02' E 136°49'0 0.0
2018-Mar-04 11:00N 35°02' E 136°49'0 0.0
2018-Mar-04 10:30N 35°02' E 136°49'0 0.0
2018-Mar-04 10:00N 35°02' E 136°49'0 0.0
2018-Mar-04 09:30N 35°02' E 136°49'0 0.0
2018-Mar-04 08:57N 35°02' E 136°49'0 0.0
2018-Mar-04 08:30N 35°02' E 136°49'0 0.0
2018-Mar-04 08:00N 35°02' E 136°49'0 0.0
2018-Mar-04 07:30N 35°02' E 136°49'0 0.0
2018-Mar-04 06:57N 35°02' E 136°49'0 0.0
2018-Mar-04 06:30N 35°02' E 136°49'0 0.0
2018-Mar-04 05:57N 35°02' E 136°49'0 0.0
2018-Mar-04 05:30N 35°02' E 136°49'0 0.0
2018-Mar-04 05:00N 35°02' E 136°49'0 0.0
2018-Mar-04 04:30N 35°02' E 136°49'0 0.0
2018-Mar-04 03:57N 35°02' E 136°49'0 0.0
2018-Mar-04 03:30N 35°02' E 136°49'0 0.0
2018-Mar-04 02:57N 35°02' E 136°49'0 0.0
2018-Mar-04 02:27N 35°02' E 136°49'0 0.0
2018-Mar-04 02:00N 35°02' E 136°49'0 0.0
2018-Mar-04 01:30N 35°02' E 136°49'0 0.0
2018-Mar-04 01:00N 35°02' E 136°49'0 0.0
2018-Mar-04 00:30N 35°02' E 136°49'0 0.0
2018-Mar-04 00:00N 35°02' E 136°49'0 0.0
2018-Mar-03 23:27N 35°02' E 136°49'0 0.0
2018-Mar-03 23:00N 35°02' E 136°49'0 0.0
2018-Mar-03 22:30N 35°02' E 136°49'0 0.0
2018-Mar-03 21:57N 35°02' E 136°49'0 0.0
2018-Mar-03 21:30N 35°02' E 136°49'0 0.0
2018-Mar-03 21:00N 35°02' E 136°49'0 0.0
2018-Mar-03 20:30N 35°02' E 136°49'0 0.0
2018-Mar-03 20:00N 35°02' E 136°49'0 0.0
2018-Mar-03 19:30N 35°02' E 136°49'0 0.0
2018-Mar-03 19:00N 35°02' E 136°49'0 0.0
2018-Mar-03 18:30N 35°02' E 136°49'0 0.0
2018-Mar-03 18:00N 35°02' E 136°49'0 0.0
2018-Mar-03 17:30N 35°02' E 136°49'0 0.0
2018-Mar-03 17:00N 35°02' E 136°49'0 0.0
2018-Mar-03 16:30N 35°02' E 136°49'0 0.0
2018-Mar-03 16:00N 35°02' E 136°49'0 0.0
2018-Mar-03 15:27N 35°02' E 136°49'0 0.0
2018-Mar-03 15:00N 35°02' E 136°49'0 0.0
2018-Mar-03 14:30N 35°02' E 136°49'0 0.0
2018-Mar-03 14:00N 35°02' E 136°49'0 0.0
2018-Mar-03 13:30N 35°02' E 136°49'0 0.0
2018-Mar-03 13:00N 35°02' E 136°49'0 0.0
2018-Mar-03 12:30N 35°02' E 136°49'0 0.0
2018-Mar-03 12:00N 35°02' E 136°49'0 0.0
2018-Mar-03 11:30N 35°02' E 136°49'0 0.0
2018-Mar-03 11:00N 35°02' E 136°49'0 0.0
2018-Mar-03 10:27N 35°02' E 136°49'0 0.0
2018-Mar-03 10:00N 35°02' E 136°49'0 0.0
2018-Mar-03 09:24N 35°02' E 136°49'0 0.0
2018-Mar-03 09:00N 35°02' E 136°49'0 0.0
2018-Mar-03 08:27N 35°02' E 136°49'0 0.0
2018-Mar-03 07:57N 35°02' E 136°49'0 0.0
2018-Mar-03 07:30N 35°02' E 136°49'0 0.0
2018-Mar-03 07:00N 35°02' E 136°49'0 0.0
2018-Mar-03 06:30N 35°02' E 136°49'0 0.0
2018-Mar-03 06:00N 35°02' E 136°49'0 0.0
2018-Mar-03 05:30N 35°02' E 136°49'0 0.0
2018-Mar-03 04:57N 35°02' E 136°49'0 0.0
2018-Mar-03 04:30N 35°02' E 136°49'0 0.0
2018-Mar-03 04:00N 35°02' E 136°49'0 0.0
2018-Mar-03 03:30N 35°02' E 136°49'0 0.0
2018-Mar-03 02:57N 35°02' E 136°49'0 0.0
2018-Mar-03 02:30N 35°02' E 136°49'0 0.0
2018-Mar-03 01:57N 35°02' E 136°49'0 0.0
2018-Mar-03 01:30N 35°02' E 136°49'0 0.0
2018-Mar-03 01:00N 35°02' E 136°49'1 1.1
2018-Mar-03 00:30N 35°02' E 136°48'3 5.0
2018-Mar-03 00:00N 34°59' E 136°47'2 3.5
2018-Mar-02 23:30N 34°58' E 136°46'3 5.0
2018-Mar-02 23:00N 34°55' E 136°46'3 5.6
2018-Mar-02 22:30N 34°53' E 136°46'3 5.7
2018-Mar-02 22:00N 34°50' E 136°46'105 5.4
2018-Mar-02 02:42N 33°55' E 134°58'2 9.9
2018-Mar-02 02:29N 33°58' E 134°58'6 9.8
2018-Mar-02 01:54N 34°03' E 134°58'4 9.7
2018-Mar-02 01:30N 34°07' E 134°58'5 9.3
2018-Mar-02 01:00N 34°12' E 134°58'4 8.4
2018-Mar-02 00:30N 34°16' E 134°59'3 6.7
2018-Mar-02 00:00N 34°19' E 134°58'3 6.5
2018-Mar-01 23:30N 34°22' E 135°01'4 7.7
2018-Mar-01 23:00N 34°23' E 135°05'1 2.4
2018-Mar-01 22:29N 34°23' E 135°07'0 0.1
2018-Mar-01 21:59N 34°22' E 135°07'0 0.1
2018-Mar-01 21:26N 34°22' E 135°07'0 0.0
2018-Mar-01 20:59N 34°22' E 135°07'0 0.0
2018-Mar-01 20:29N 34°22' E 135°07'0 0.0
2018-Mar-01 19:59N 34°22' E 135°07'0 0.0
2018-Mar-01 19:29N 34°22' E 135°07'0 0.1
2018-Mar-01 18:59N 34°22' E 135°07'0 0.0
2018-Mar-01 18:23N 34°22' E 135°07'0 0.0
2018-Mar-01 17:59N 34°22' E 135°07'0 0.1
2018-Mar-01 17:29N 34°22' E 135°07'0 0.1
2018-Mar-01 16:50N 34°22' E 135°07'0 0.1
2018-Mar-01 16:29N 34°22' E 135°07'0 0.0
2018-Mar-01 15:59N 34°22' E 135°07'0 0.1
2018-Mar-01 15:29N 34°22' E 135°07'0 0.0
2018-Mar-01 14:47N 34°22' E 135°07'0 0.0
2018-Mar-01 14:29N 34°22' E 135°07'1 1.7
2018-Mar-01 14:00N 34°23' E 135°06'4 7.6
2018-Mar-01 13:30N 34°26' E 135°04'5 9.9
2018-Mar-01 13:00N 34°31' E 135°03'4 8.9
2018-Mar-01 12:30N 34°36' E 135°03'4 7.8
2018-Mar-01 12:00N 34°37' E 134°58'4 8.4
2018-Mar-01 11:30N 34°35' E 134°54'4 8.0
2018-Mar-01 10:58N 34°33' E 134°49'4 8.9
2018-Mar-01 10:29N 34°31' E 134°45'  
Track history (hours):
 
Tides and Currents Weather Stations Pressure Air Temp Water Temp Dewpoint Dewpoint Depression Visibility Wind Speed Wind Dir Waves Ship Positions

Hui Tong

Last reported at 2018-Mar-11 10:14 UTC. Time now 2018-Apr-21 13:47 UTC.
Position N 34°35' E 130°48'.
Warning: this ship's position is 41 days out of date.

Length 100 m; draft 3.6 m.

Type: Cargo ship. MMSI: 370672000.

Date/timePositionNaut miles runAvg speedWind from/ knotsBaromVisibWave heightAir tempDewpointWater temp
2018-Mar-11 10:14N 34°35' E 130°48'311.1
2018-Mar-11 09:57N 34°32' E 130°47'710.7
2018-Mar-11 09:19N 34°25' E 130°47'410.9
2018-Mar-11 08:55N 34°21' E 130°47'410.8
2018-Mar-11 08:30N 34°17' E 130°47'610.8
2018-Mar-11 07:57N 34°11' E 130°50'510.3
2018-Mar-11 07:31N 34°07' E 130°51'510.3
2018-Mar-11 07:01N 34°02' E 130°52'5 9.7
2018-Mar-11 06:31N 33°57' E 130°52'3 6.8
2018-Mar-11 06:00N 33°55' E 130°56'4 8.7
2018-Mar-11 05:31N 33°59' E 130°59'5 9.3
2018-Mar-11 05:01N 33°57' E 131°04'5 9.7
2018-Mar-11 04:30N 33°54' E 131°09'510.0
2018-Mar-11 03:59N 33°52' E 131°15'510.4
2018-Mar-11 03:31N 33°51' E 131°20'510.8
2018-Mar-11 03:01N 33°49' E 131°27'510.6
2018-Mar-11 02:31N 33°48' E 131°33'510.6
2018-Mar-11 02:00N 33°47' E 131°39'50 9.8
2018-Mar-10 20:52N 33°56' E 132°39'4 9.8
2018-Mar-10 20:30N 33°58' E 132°43'94 9.3
2018-Mar-10 10:22N 34°28' E 134°31'610.5
2018-Mar-10 09:49N 34°30' E 134°37'310.5
2018-Mar-10 09:30N 34°32' E 134°41'510.3
2018-Mar-10 08:59N 34°34' E 134°47'510.0
2018-Mar-10 08:30N 34°35' E 134°52'5 9.9
2018-Mar-10 08:00N 34°37' E 134°58'5 9.2
2018-Mar-10 07:31N 34°36' E 135°03'5 9.0
2018-Mar-10 07:00N 34°32' E 135°05'510.9
2018-Mar-10 06:30N 34°27' E 135°03'510.8
2018-Mar-10 06:00N 34°21' E 135°01'510.2
2018-Mar-10 05:31N 34°17' E 134°59'610.0
2018-Mar-10 04:54N 34°11' E 134°59'4 9.8
2018-Mar-10 04:28N 34°06' E 134°59'5 9.5
2018-Mar-10 03:58N 34°02' E 134°59'9 8.9
2018-Mar-10 02:58N 33°53' E 134°59'103 6.3
2018-Mar-09 10:39N 34°40' E 136°50'910.4
2018-Mar-09 09:49N 34°47' E 136°44'3 9.2
2018-Mar-09 09:30N 34°50' E 136°42'1 1.1
2018-Mar-09 08:55N 34°50' E 136°42'0 0.0
2018-Mar-09 08:28N 34°50' E 136°42'0 0.0
2018-Mar-09 07:58N 34°50' E 136°42'0 0.0
2018-Mar-09 07:28N 34°50' E 136°42'0 0.0
2018-Mar-09 06:58N 34°50' E 136°42'0 0.0
2018-Mar-09 06:25N 34°50' E 136°42'0 0.0
2018-Mar-09 05:55N 34°50' E 136°42'0 0.0
2018-Mar-09 05:28N 34°50' E 136°42'0 0.0
2018-Mar-09 04:55N 34°50' E 136°42'0 0.0
2018-Mar-09 04:25N 34°50' E 136°42'0 0.0
2018-Mar-09 02:07N 34°50' E 136°42'0 0.0
2018-Mar-09 01:19N 34°50' E 136°42'0 0.0
2018-Mar-08 23:49N 34°50' E 136°42'0 0.1
2018-Mar-08 23:22N 34°50' E 136°42'0 0.0
2018-Mar-08 22:49N 34°50' E 136°42'0 0.1
2018-Mar-08 22:28N 34°50' E 136°42'0 0.0
2018-Mar-08 21:43N 34°50' E 136°42'0 0.0
2018-Mar-08 21:25N 34°50' E 136°42'0 0.0
2018-Mar-08 20:58N 34°50' E 136°42'0 0.0
2018-Mar-08 20:22N 34°50' E 136°42'0 0.0
2018-Mar-07 21:58N 34°50' E 136°42'0 0.0
2018-Mar-07 21:28N 34°50' E 136°42'0 0.0
2018-Mar-07 20:55N 34°50' E 136°42'0 0.0
2018-Mar-07 20:25N 34°50' E 136°42'0 0.0
2018-Mar-07 19:58N 34°50' E 136°42'0 0.0
2018-Mar-07 19:25N 34°50' E 136°42'0 0.0
2018-Mar-07 18:58N 34°50' E 136°42'0 0.0
2018-Mar-07 18:28N 34°50' E 136°42'0 0.1
2018-Mar-07 17:49N 34°50' E 136°42'0 0.0
2018-Mar-07 17:25N 34°50' E 136°42'0 0.0
2018-Mar-07 16:52N 34°50' E 136°42'0 0.0
2018-Mar-07 16:25N 34°50' E 136°42'0 0.0
2018-Mar-07 15:19N 34°50' E 136°42'0 0.0
2018-Mar-07 14:55N 34°50' E 136°42'0 0.0
2018-Mar-07 10:43N 34°50' E 136°41'0 0.1
2018-Mar-07 10:13N 34°50' E 136°42'0 0.0
2018-Mar-07 09:49N 34°50' E 136°42'0 0.0
2018-Mar-07 09:25N 34°50' E 136°42'0 0.1
2018-Mar-07 08:55N 34°50' E 136°42'0 0.0
2018-Mar-07 08:25N 34°50' E 136°42'0 0.6
2018-Mar-07 08:00N 34°50' E 136°42'4 7.2
2018-Mar-07 07:30N 34°54' E 136°44'4 8.7
2018-Mar-07 07:00N 34°58' E 136°46'4 7.6
2018-Mar-07 06:30N 35°01' E 136°48'1 2.6
2018-Mar-07 06:00N 35°02' E 136°49'0 0.0
2018-Mar-07 05:30N 35°02' E 136°49'0 0.0
2018-Mar-07 05:00N 35°02' E 136°49'0 0.0
2018-Mar-07 04:27N 35°02' E 136°49'0 0.0
2018-Mar-07 04:00N 35°02' E 136°49'0 0.0
2018-Mar-07 03:30N 35°02' E 136°49'0 0.0
2018-Mar-07 03:00N 35°02' E 136°49'0 0.0
2018-Mar-07 02:30N 35°02' E 136°49'0 0.0
2018-Mar-07 02:00N 35°02' E 136°49'0 0.0
2018-Mar-07 01:30N 35°02' E 136°49'0 0.0
2018-Mar-07 01:00N 35°02' E 136°49'0 0.0
2018-Mar-07 00:30N 35°02' E 136°49'0 0.0
2018-Mar-07 00:00N 35°02' E 136°49'0 0.0
2018-Mar-06 23:30N 35°02' E 136°49'0 0.0
2018-Mar-06 23:00N 35°02' E 136°49'0 0.0
2018-Mar-06 22:30N 35°02' E 136°49'0 0.0
2018-Mar-06 22:00N 35°02' E 136°49'0 0.0
2018-Mar-06 21:30N 35°02' E 136°49'0 0.0
2018-Mar-06 21:00N 35°02' E 136°49'0 0.0
2018-Mar-06 20:30N 35°02' E 136°49'0 0.0
2018-Mar-06 20:00N 35°02' E 136°49'0 0.0
2018-Mar-06 19:30N 35°02' E 136°49'0 0.0
2018-Mar-06 18:57N 35°02' E 136°49'0 0.0
2018-Mar-06 18:30N 35°02' E 136°49'0 0.0
2018-Mar-06 18:00N 35°02' E 136°49'0 0.0
2018-Mar-06 17:30N 35°02' E 136°49'0 0.0
2018-Mar-06 17:00N 35°02' E 136°49'0 0.0
2018-Mar-06 16:30N 35°02' E 136°49'0 0.0
2018-Mar-06 16:00N 35°02' E 136°49'0 0.0
2018-Mar-06 15:30N 35°02' E 136°49'0 0.0
2018-Mar-06 15:00N 35°02' E 136°49'0 0.0
2018-Mar-06 14:27N 35°02' E 136°49'0 0.0
2018-Mar-06 14:00N 35°02' E 136°49'0 0.0
2018-Mar-06 13:30N 35°02' E 136°49'0 0.0
2018-Mar-06 12:57N 35°02' E 136°49'0 0.0
2018-Mar-06 12:30N 35°02' E 136°49'0 0.0
2018-Mar-06 12:00N 35°02' E 136°49'0 0.0
2018-Mar-06 11:30N 35°02' E 136°49'0 0.0
2018-Mar-06 11:00N 35°02' E 136°49'0 0.0
2018-Mar-06 10:30N 35°02' E 136°49'0 0.0
2018-Mar-06 10:00N 35°02' E 136°49'0 0.0
2018-Mar-06 09:30N 35°02' E 136°49'0 0.0
2018-Mar-06 09:00N 35°02' E 136°49'0 0.0
2018-Mar-06 08:30N 35°02' E 136°49'0 0.0
2018-Mar-06 08:00N 35°02' E 136°49'0 0.0
2018-Mar-06 07:30N 35°02' E 136°49'0 0.0
2018-Mar-06 07:00N 35°02' E 136°49'0 0.0
2018-Mar-06 06:30N 35°02' E 136°49'0 0.0
2018-Mar-06 06:00N 35°02' E 136°49'0 0.0
2018-Mar-06 05:30N 35°02' E 136°49'0 0.0
2018-Mar-06 05:00N 35°02' E 136°49'0 0.0
2018-Mar-06 04:30N 35°02' E 136°49'0 0.0
2018-Mar-06 04:00N 35°02' E 136°49'0 0.0
2018-Mar-06 03:30N 35°02' E 136°49'0 0.0
2018-Mar-06 03:00N 35°02' E 136°49'0 0.0
2018-Mar-06 02:30N 35°02' E 136°49'0 0.0
2018-Mar-06 01:57N 35°02' E 136°49'0 0.0
2018-Mar-06 01:30N 35°02' E 136°49'0 0.0
2018-Mar-06 01:00N 35°02' E 136°49'0 0.0
2018-Mar-06 00:30N 35°02' E 136°49'0 0.0
2018-Mar-06 00:00N 35°02' E 136°49'0 0.0
2018-Mar-05 23:30N 35°02' E 136°49'0 0.0
2018-Mar-05 23:00N 35°02' E 136°49'0 0.0
2018-Mar-05 22:27N 35°02' E 136°49'0 0.0
2018-Mar-05 22:00N 35°02' E 136°49'0 0.0
2018-Mar-05 21:30N 35°02' E 136°49'0 0.0
2018-Mar-05 21:00N 35°02' E 136°49'0 0.0
2018-Mar-05 20:30N 35°02' E 136°49'0 0.0
2018-Mar-05 20:00N 35°02' E 136°49'0 0.0
2018-Mar-05 19:30N 35°02' E 136°49'0 0.0
2018-Mar-05 19:00N 35°02' E 136°49'0 0.0
2018-Mar-05 18:27N 35°02' E 136°49'0 0.0
2018-Mar-05 18:00N 35°02' E 136°49'0 0.0
2018-Mar-05 17:27N 35°02' E 136°49'0 0.0
2018-Mar-05 17:00N 35°02' E 136°49'0 0.0
2018-Mar-05 16:30N 35°02' E 136°49'0 0.0
2018-Mar-05 15:57N 35°02' E 136°49'0 0.0
2018-Mar-05 15:30N 35°02' E 136°49'0 0.0
2018-Mar-05 15:00N 35°02' E 136°49'0 0.0
2018-Mar-05 14:30N 35°02' E 136°49'0 0.0
2018-Mar-05 14:00N 35°02' E 136°49'0 0.0
2018-Mar-05 13:30N 35°02' E 136°49'0 0.0
2018-Mar-05 13:00N 35°02' E 136°49'0 0.0
2018-Mar-05 12:27N 35°02' E 136°49'0 0.0
2018-Mar-05 11:57N 35°02' E 136°49'0 0.0
2018-Mar-05 11:30N 35°02' E 136°49'0 0.0
2018-Mar-05 10:57N 35°02' E 136°49'0 0.0
2018-Mar-05 10:30N 35°02' E 136°49'0 0.0
2018-Mar-05 10:00N 35°02' E 136°49'0 0.0
2018-Mar-05 09:30N 35°02' E 136°49'0 0.0
2018-Mar-05 09:00N 35°02' E 136°49'0 0.0
2018-Mar-05 08:30N 35°02' E 136°49'0 0.0
2018-Mar-05 08:00N 35°02' E 136°49'0 0.0
2018-Mar-05 07:30N 35°02' E 136°49'0 0.0
2018-Mar-05 07:00N 35°02' E 136°49'0 0.0
2018-Mar-05 06:30N 35°02' E 136°49'0 0.0
2018-Mar-05 06:00N 35°02' E 136°49'0 0.0
2018-Mar-05 05:30N 35°02' E 136°49'0 0.0
2018-Mar-05 05:00N 35°02' E 136°49'0 0.0
2018-Mar-05 04:30N 35°02' E 136°49'0 0.0
2018-Mar-05 03:57N 35°02' E 136°49'0 0.0
2018-Mar-05 03:30N 35°02' E 136°49'0 0.0
2018-Mar-05 03:00N 35°02' E 136°49'0 0.0
2018-Mar-05 02:30N 35°02' E 136°49'0 0.0
2018-Mar-05 01:57N 35°02' E 136°49'0 0.0
2018-Mar-05 01:27N 35°02' E 136°49'0 0.0
2018-Mar-05 01:00N 35°02' E 136°49'0 0.0
2018-Mar-05 00:30N 35°02' E 136°49'0 0.0
2018-Mar-05 00:00N 35°02' E 136°49'0 0.0
2018-Mar-04 23:30N 35°02' E 136°49'0 0.0
2018-Mar-04 23:00N 35°02' E 136°49'0 0.0
2018-Mar-04 22:30N 35°02' E 136°49'0 0.0
2018-Mar-04 22:00N 35°02' E 136°49'0 0.0
2018-Mar-04 21:30N 35°02' E 136°49'0 0.0
2018-Mar-04 21:00N 35°02' E 136°49'0 0.0
2018-Mar-04 20:30N 35°02' E 136°49'0 0.0
2018-Mar-04 20:00N 35°02' E 136°49'0 0.0
2018-Mar-04 19:30N 35°02' E 136°49'0 0.0
2018-Mar-04 19:00N 35°02' E 136°49'0 0.0
2018-Mar-04 18:27N 35°02' E 136°49'0 0.0
2018-Mar-04 18:00N 35°02' E 136°49'0 0.0
2018-Mar-04 17:27N 35°02' E 136°49'0 0.0
2018-Mar-04 17:00N 35°02' E 136°49'0 0.0
2018-Mar-04 16:30N 35°02' E 136°49'0 0.0
2018-Mar-04 16:00N 35°02' E 136°49'0 0.0
2018-Mar-04 15:30N 35°02' E 136°49'0 0.0
2018-Mar-04 15:00N 35°02' E 136°49'0 0.0
2018-Mar-04 14:30N 35°02' E 136°49'0 0.0
2018-Mar-04 14:00N 35°02' E 136°49'0 0.0
2018-Mar-04 13:30N 35°02' E 136°49'0 0.0
2018-Mar-04 13:00N 35°02' E 136°49'0 0.0
2018-Mar-04 12:30N 35°02' E 136°49'0 0.0
2018-Mar-04 12:00N 35°02' E 136°49'0 0.0
2018-Mar-04 11:24N 35°02' E 136°49'0 0.0
2018-Mar-04 11:00N 35°02' E 136°49'0 0.0
2018-Mar-04 10:30N 35°02' E 136°49'0 0.0
2018-Mar-04 10:00N 35°02' E 136°49'0 0.0
2018-Mar-04 09:30N 35°02' E 136°49'0 0.0
2018-Mar-04 08:57N 35°02' E 136°49'0 0.0
2018-Mar-04 08:30N 35°02' E 136°49'0 0.0
2018-Mar-04 08:00N 35°02' E 136°49'0 0.0
2018-Mar-04 07:30N 35°02' E 136°49'0 0.0
2018-Mar-04 06:57N 35°02' E 136°49'0 0.0
2018-Mar-04 06:30N 35°02' E 136°49'0 0.0
2018-Mar-04 05:57N 35°02' E 136°49'0 0.0
2018-Mar-04 05:30N 35°02' E 136°49'0 0.0
2018-Mar-04 05:00N 35°02' E 136°49'0 0.0
2018-Mar-04 04:30N 35°02' E 136°49'0 0.0
2018-Mar-04 03:57N 35°02' E 136°49'0 0.0
2018-Mar-04 03:30N 35°02' E 136°49'0 0.0
2018-Mar-04 02:57N 35°02' E 136°49'0 0.0
2018-Mar-04 02:27N 35°02' E 136°49'0 0.0
2018-Mar-04 02:00N 35°02' E 136°49'0 0.0
2018-Mar-04 01:30N 35°02' E 136°49'0 0.0
2018-Mar-04 01:00N 35°02' E 136°49'0 0.0
2018-Mar-04 00:30N 35°02' E 136°49'0 0.0
2018-Mar-04 00:00N 35°02' E 136°49'0 0.0
2018-Mar-03 23:27N 35°02' E 136°49'0 0.0
2018-Mar-03 23:00N 35°02' E 136°49'0 0.0
2018-Mar-03 22:30N 35°02' E 136°49'0 0.0
2018-Mar-03 21:57N 35°02' E 136°49'0 0.0
2018-Mar-03 21:30N 35°02' E 136°49'0 0.0
2018-Mar-03 21:00N 35°02' E 136°49'0 0.0
2018-Mar-03 20:30N 35°02' E 136°49'0 0.0
2018-Mar-03 20:00N 35°02' E 136°49'0 0.0
2018-Mar-03 19:30N 35°02' E 136°49'0 0.0
2018-Mar-03 19:00N 35°02' E 136°49'0 0.0
2018-Mar-03 18:30N 35°02' E 136°49'0 0.0
2018-Mar-03 18:00N 35°02' E 136°49'0 0.0
2018-Mar-03 17:30N 35°02' E 136°49'0 0.0
2018-Mar-03 17:00N 35°02' E 136°49'0 0.0
2018-Mar-03 16:30N 35°02' E 136°49'0 0.0
2018-Mar-03 16:00N 35°02' E 136°49'0 0.0
2018-Mar-03 15:27N 35°02' E 136°49'0 0.0
2018-Mar-03 15:00N 35°02' E 136°49'0 0.0
2018-Mar-03 14:30N 35°02' E 136°49'0 0.0
2018-Mar-03 14:00N 35°02' E 136°49'0 0.0
2018-Mar-03 13:30N 35°02' E 136°49'0 0.0
2018-Mar-03 13:00N 35°02' E 136°49'0 0.0
2018-Mar-03 12:30N 35°02' E 136°49'0 0.0
2018-Mar-03 12:00N 35°02' E 136°49'0 0.0
2018-Mar-03 11:30N 35°02' E 136°49'0 0.0
2018-Mar-03 11:00N 35°02' E 136°49'0 0.0
2018-Mar-03 10:27N 35°02' E 136°49'0 0.0
2018-Mar-03 10:00N 35°02' E 136°49'0 0.0
2018-Mar-03 09:24N 35°02' E 136°49'0 0.0
2018-Mar-03 09:00N 35°02' E 136°49'0 0.0
2018-Mar-03 08:27N 35°02' E 136°49'0 0.0
2018-Mar-03 07:57N 35°02' E 136°49'0 0.0
2018-Mar-03 07:30N 35°02' E 136°49'0 0.0
2018-Mar-03 07:00N 35°02' E 136°49'0 0.0
2018-Mar-03 06:30N 35°02' E 136°49'0 0.0
2018-Mar-03 06:00N 35°02' E 136°49'0 0.0
2018-Mar-03 05:30N 35°02' E 136°49'0 0.0
2018-Mar-03 04:57N 35°02' E 136°49'0 0.0
2018-Mar-03 04:30N 35°02' E 136°49'0 0.0
2018-Mar-03 04:00N 35°02' E 136°49'0 0.0
2018-Mar-03 03:30N 35°02' E 136°49'0 0.0
2018-Mar-03 02:57N 35°02' E 136°49'0 0.0
2018-Mar-03 02:30N 35°02' E 136°49'0 0.0
2018-Mar-03 01:57N 35°02' E 136°49'0 0.0
2018-Mar-03 01:30N 35°02' E 136°49'0 0.0
2018-Mar-03 01:00N 35°02' E 136°49'1 1.1
2018-Mar-03 00:30N 35°02' E 136°48'3 5.0
2018-Mar-03 00:00N 34°59' E 136°47'2 3.5
2018-Mar-02 23:30N 34°58' E 136°46'3 5.0
2018-Mar-02 23:00N 34°55' E 136°46'3 5.6
2018-Mar-02 22:30N 34°53' E 136°46'3 5.7
2018-Mar-02 22:00N 34°50' E 136°46'105 5.4
2018-Mar-02 02:42N 33°55' E 134°58'2 9.9
2018-Mar-02 02:29N 33°58' E 134°58'6 9.8
2018-Mar-02 01:54N 34°03' E 134°58'4 9.7
2018-Mar-02 01:30N 34°07' E 134°58'5 9.3
2018-Mar-02 01:00N 34°12' E 134°58'4 8.4
2018-Mar-02 00:30N 34°16' E 134°59'3 6.7
2018-Mar-02 00:00N 34°19' E 134°58'3 6.5
2018-Mar-01 23:30N 34°22' E 135°01'4 7.7
2018-Mar-01 23:00N 34°23' E 135°05'1 2.4
2018-Mar-01 22:29N 34°23' E 135°07'0 0.1
2018-Mar-01 21:59N 34°22' E 135°07'0 0.1
2018-Mar-01 21:26N 34°22' E 135°07'0 0.0
2018-Mar-01 20:59N 34°22' E 135°07'0 0.0
2018-Mar-01 20:29N 34°22' E 135°07'0 0.0
2018-Mar-01 19:59N 34°22' E 135°07'0 0.0
2018-Mar-01 19:29N 34°22' E 135°07'0 0.1
2018-Mar-01 18:59N 34°22' E 135°07'0 0.0
2018-Mar-01 18:23N 34°22' E 135°07'0 0.0
2018-Mar-01 17:59N 34°22' E 135°07'0 0.1
2018-Mar-01 17:29N 34°22' E 135°07'0 0.1
2018-Mar-01 16:50N 34°22' E 135°07'0 0.1
2018-Mar-01 16:29N 34°22' E 135°07'0 0.0
2018-Mar-01 15:59N 34°22' E 135°07'0 0.1
2018-Mar-01 15:29N 34°22' E 135°07'0 0.0
2018-Mar-01 14:47N 34°22' E 135°07'0 0.0
2018-Mar-01 14:29N 34°22' E 135°07'1 1.7
2018-Mar-01 14:00N 34°23' E 135°06'4 7.6
2018-Mar-01 13:30N 34°26' E 135°04'5 9.9
2018-Mar-01 13:00N 34°31' E 135°03'4 8.9
2018-Mar-01 12:30N 34°36' E 135°03'4 7.8
2018-Mar-01 12:00N 34°37' E 134°58'4 8.4
2018-Mar-01 11:30N 34°35' E 134°54'4 8.0
2018-Mar-01 10:58N 34°33' E 134°49'4 8.9
2018-Mar-01 10:29N 34°31' E 134°45'  

Dump ship's entire track history